Time;durP1;ratioP1;P1;durP2;ratioP2;P2;SDS_P1;SDS_P2;PMS_P1;PMS_P2;Temp;Humidity;BMP_temperature;BMP_pressure;BME280_temperature;BME280_humidity;BME280_pressure;Samples;Min_cycle;Max_cycle;Signal;HPM_P1;HPM_P2
2022/06/27 00:01:44;;;;;;;8.02;6.30;;;;;;;;;;5112806;28;20040;-55
2022/06/27 00:04:12;;;;;;;7.03;6.15;;;;;;;;;;5112599;28;20040;-50
2022/06/27 00:06:39;;;;;;;6.55;5.95;;;;;;;;;;5112403;28;20119;-51
2022/06/27 00:09:06;;;;;;;10.45;6.35;;;;;;;;;;5094177;28;20130;-52
2022/06/27 00:11:34;;;;;;;7.57;6.72;;;;;;;;;;5112648;28;20042;-49
2022/06/27 00:14:01;;;;;;;8.27;6.30;;;;;;;;;;5112781;28;20486;-50
2022/06/27 00:16:29;;;;;;;8.15;6.82;;;;;;;;;;5111932;28;20100;-49
2022/06/27 00:19:18;;;;;;;7.57;6.75;;;;;;;;;;5112491;28;20419;-51
2022/06/27 00:21:46;;;;;;;7.13;6.28;;;;;;;;;;5112331;28;20031;-50
2022/06/27 00:24:13;;;;;;;8.25;7.45;;;;;;;;;;5111993;28;20114;-51
2022/06/27 00:26:41;;;;;;;8.32;7.53;;;;;;;;;;5112499;28;20044;-48
2022/06/27 00:29:08;;;;;;;9.02;7.18;;;;;;;;;;5094035;28;20055;-50
2022/06/27 00:31:36;;;;;;;9.30;7.25;;;;;;;;;;5094112;28;20131;-48
2022/06/27 00:34:03;;;;;;;7.78;6.97;;;;;;;;;;5112328;28;20039;-50
2022/06/27 00:36:31;;;;;;;8.07;6.93;;;;;;;;;;5112506;28;20060;-53
2022/06/27 00:38:59;;;;;;;7.93;6.97;;;;;;;;;;5094387;28;20588;-51
2022/06/27 00:41:26;;;;;;;8.40;7.60;;;;;;;;;;5112138;28;20053;-49
2022/06/27 00:43:53;;;;;;;9.25;8.35;;;;;;;;;;5112258;28;20046;-52
2022/06/27 00:46:21;;;;;;;9.52;6.45;;;;;;;;;;5093752;28;20073;-52
2022/06/27 00:48:49;;;;;;;8.02;7.22;;;;;;;;;;5112205;28;20052;-50
2022/06/27 00:51:17;;;;;;;8.13;7.43;;;;;;;;;;5111748;28;20048;-49
2022/06/27 00:53:45;;;;;;;11.30;7.50;;;;;;;;;;5112036;28;20075;-50
2022/06/27 00:56:13;;;;;;;8.55;6.70;;;;;;;;;;5111806;28;20047;-54
2022/06/27 00:58:40;;;;;;;8.43;6.82;;;;;;;;;;5093747;28;20502;-56
2022/06/27 01:01:08;;;;;;;8.88;8.07;;;;;;;;;;5112122;28;20046;-56
2022/06/27 01:03:35;;;;;;;10.52;7.18;;;;;;;;;;5112041;28;20372;-51
2022/06/27 01:06:03;;;;;;;7.50;6.70;;;;;;;;;;5112183;28;20040;-58
2022/06/27 01:08:31;;;;;;;8.70;7.80;;;;;;;;;;5111766;28;20510;-52
2022/06/27 01:10:58;;;;;;;10.77;7.45;;;;;;;;;;5093706;28;20100;-55
2022/06/27 01:13:25;;;;;;;9.77;7.53;;;;;;;;;;5111924;28;20046;-54
2022/06/27 01:15:54;;;;;;;9.30;6.80;;;;;;;;;;5093860;28;20449;-54
2022/06/27 01:18:21;;;;;;;7.40;6.70;;;;;;;;;;5111600;28;20405;-57
2022/06/27 01:20:49;;;;;;;9.02;6.90;;;;;;;;;;5111706;28;20043;-55
2022/06/27 01:23:16;;;;;;;12.52;8.40;;;;;;;;;;5111911;28;20039;-58
2022/06/27 01:25:43;;;;;;;8.05;7.15;;;;;;;;;;5111739;28;20114;-49
2022/06/27 01:28:12;;;;;;;8.57;7.75;;;;;;;;;;5093930;28;20109;-54
2022/06/27 01:30:39;;;;;;;8.32;7.07;;;;;;;;;;5097059;28;20043;-56
2022/06/27 01:33:07;;;;;;;7.95;7.15;;;;;;;;;;5096977;28;20036;-55
2022/06/27 01:35:37;;;;;;;8.65;7.30;;;;;;;;;;5097404;28;20060;-52
2022/06/27 01:38:05;;;;;;;8.75;6.97;;;;;;;;;;5097074;28;20043;-51
2022/06/27 01:40:33;;;;;;;10.65;6.90;;;;;;;;;;5097182;28;20039;-51
2022/06/27 01:43:04;;;;;;;8.85;7.75;;;;;;;;;;5115440;28;20063;-52
2022/06/27 01:45:33;;;;;;;7.55;6.80;;;;;;;;;;5096914;28;20451;-51
2022/06/27 01:48:01;;;;;;;8.02;7.22;;;;;;;;;;5097100;28;20126;-54
2022/06/27 01:50:30;;;;;;;8.73;7.50;;;;;;;;;;5096616;28;20464;-52
2022/06/27 01:53:00;;;;;;;10.77;7.47;;;;;;;;;;5114934;28;20047;-57
2022/06/27 01:55:28;;;;;;;12.65;8.07;;;;;;;;;;5096628;28;20039;-54
2022/06/27 01:57:55;;;;;;;7.78;6.85;;;;;;;;;;5096532;28;20091;-56
2022/06/27 02:00:23;;;;;;;8.50;7.70;;;;;;;;;;5096181;28;20104;-56
2022/06/27 02:02:56;;;;;;;8.80;7.90;;;;;;;;;;5114987;28;20130;-51
2022/06/27 02:05:25;;;;;;;8.38;7.50;;;;;;;;;;5096421;28;20097;-58
2022/06/27 02:07:56;;;;;;;9.32;7.40;;;;;;;;;;5096371;28;20073;-55
2022/06/27 02:10:24;;;;;;;9.05;7.18;;;;;;;;;;5096157;28;20044;-57
2022/06/27 02:12:51;;;;;;;8.60;7.25;;;;;;;;;;5114490;28;20494;-58
2022/06/27 02:15:20;;;;;;;7.78;7.05;;;;;;;;;;5096149;28;20394;-53
2022/06/27 02:17:48;;;;;;;8.93;8.02;;;;;;;;;;5096066;28;20039;-51
2022/06/27 02:20:16;;;;;;;9.30;7.60;;;;;;;;;;5095983;28;20046;-50
2022/06/27 02:22:43;;;;;;;13.18;7.63;;;;;;;;;;5096123;28;20505;-58
2022/06/27 02:25:10;;;;;;;8.23;7.10;;;;;;;;;;5114192;28;20085;-56
2022/06/27 02:27:39;;;;;;;8.40;6.78;;;;;;;;;;5114478;28;20038;-54
2022/06/27 02:30:13;;;;;;;10.05;7.95;;;;;;;;;;5095895;28;20545;-56
2022/06/27 02:32:41;;;;;;;9.45;8.48;;;;;;;;;;5114321;28;20498;-56
2022/06/27 02:35:08;;;;;;;8.30;7.50;;;;;;;;;;5095723;28;20131;-56
2022/06/27 02:37:37;;;;;;;7.40;6.60;;;;;;;;;;5114030;28;20039;-54
2022/06/27 02:40:06;;;;;;;10.88;6.97;;;;;;;;;;5113674;28;20092;-57
2022/06/27 02:42:34;;;;;;;10.52;7.75;;;;;;;;;;5114250;28;20470;-52
2022/06/27 02:45:01;;;;;;;13.07;6.80;;;;;;;;;;5113993;28;20044;-56
2022/06/27 02:47:32;;;;;;;9.75;7.63;;;;;;;;;;5113743;28;20046;-56
2022/06/27 02:50:00;;;;;;;7.78;6.97;;;;;;;;;;5113757;28;20044;-57
2022/06/27 02:52:35;;;;;;;10.93;7.05;;;;;;;;;;5095489;28;20078;-54
2022/06/27 02:55:13;;;;;;;10.00;8.23;;;;;;;;;;5095445;28;20051;-57
2022/06/27 02:58:19;;;;;;;8.85;7.82;;;;;;;;;;5095323;28;20047;-57
2022/06/27 03:00:49;;;;;;;10.75;7.05;;;;;;;;;;5095414;28;20445;-55
2022/06/27 03:03:17;;;;;;;7.82;7.13;;;;;;;;;;5095351;28;20044;-57
2022/06/27 03:05:58;;;;;;;8.15;7.03;;;;;;;;;;5095523;28;20044;-52
2022/06/27 03:08:36;;;;;;;36.17;22.92;;;;;;;;;;5094732;28;20507;-56
2022/06/27 03:11:04;;;;;;;14.18;10.88;;;;;;;;;;5113496;28;20046;-55
2022/06/27 03:13:32;;;;;;;8.10;6.97;;;;;;;;;;5113554;28;20379;-58
2022/06/27 03:16:00;;;;;;;9.75;6.80;;;;;;;;;;5095225;28;20398;-52
2022/06/27 03:18:28;;;;;;;10.63;7.18;;;;;;;;;;5113293;28;20047;-56
2022/06/27 03:21:20;;;;;;;7.70;6.90;;;;;;;;;;5101537;28;20398;-53
2022/06/27 03:23:56;;;;;;;10.20;7.68;;;;;;;;;;5094921;28;20097;-56
2022/06/27 03:26:24;;;;;;;22.48;15.68;;;;;;;;;;5101543;28;20093;-54
2022/06/27 03:28:51;;;;;;;9.05;7.22;;;;;;;;;;5092749;28;20430;-57
2022/06/27 03:31:19;;;;;;;7.65;6.70;;;;;;;;;;5074398;28;20113;-57
2022/06/27 03:33:50;;;;;;;8.05;6.32;;;;;;;;;;5074123;28;20043;-56
2022/06/27 03:36:34;;;;;;;7.03;6.32;;;;;;;;;;5074632;28;20048;-57
2022/06/27 03:39:02;;;;;;;8.35;6.50;;;;;;;;;;5074964;28;20097;-56
2022/06/27 03:41:30;;;;;;;8.73;7.82;;;;;;;;;;5074229;28;20036;-55
2022/06/27 03:43:58;;;;;;;6.63;5.90;;;;;;;;;;5074341;28;20040;-52
2022/06/27 03:46:25;;;;;;;7.63;6.03;;;;;;;;;;5073833;28;20445;-59
2022/06/27 03:51:59;;;;;;;6.50;5.90;;;;;;;;;;5073456;28;20574;-53
2022/06/27 03:54:26;;;;;;;51.38;35.35;;;;;;;;;;5073889;28;20050;-51
2022/06/27 03:56:56;;;;;;;15.40;12.05;;;;;;;;;;5074119;28;20123;-55
2022/06/27 03:59:23;;;;;;;9.13;6.57;;;;;;;;;;5074109;28;20076;-53
2022/06/27 04:01:50;;;;;;;6.53;5.65;;;;;;;;;;5074108;28;20398;-57
2022/06/27 04:04:18;;;;;;;7.78;5.50;;;;;;;;;;5073919;28;20047;-56
2022/06/27 04:06:46;;;;;;;6.53;4.93;;;;;;;;;;5073978;28;20495;-55
2022/06/27 04:09:13;;;;;;;11.73;5.38;;;;;;;;;;5091920;28;20040;-56
2022/06/27 04:11:41;;;;;;;7.07;4.80;;;;;;;;;;5091931;28;20400;-55
2022/06/27 04:14:13;;;;;;;5.50;5.00;;;;;;;;;;5073973;28;20140;-57
2022/06/27 04:17:01;;;;;;;5.82;5.18;;;;;;;;;;5060574;28;20105;-57
2022/06/27 04:19:58;;;;;;;7.10;5.05;;;;;;;;;;5095347;28;20051;-55
2022/06/27 04:22:41;;;;;;;15.70;12.38;;;;;;;;;;5093904;28;20054;-54
2022/06/27 04:25:28;;;;;;;65.43;41.67;;;;;;;;;;5112279;28;20043;-53
2022/06/27 04:27:55;;;;;;;9.23;6.38;;;;;;;;;;5093773;28;20560;-56
2022/06/27 04:30:25;;;;;;;7.32;5.50;;;;;;;;;;5112266;28;20040;-55
2022/06/27 04:32:53;;;;;;;6.28;5.60;;;;;;;;;;5112220;28;20066;-57
2022/06/27 04:35:20;;;;;;;6.65;5.63;;;;;;;;;;5094120;28;20036;-58
2022/06/27 04:37:48;;;;;;;7.75;5.53;;;;;;;;;;5112082;28;20036;-54
2022/06/27 04:40:27;;;;;;;8.23;5.60;;;;;;;;;;5112013;28;20047;-58
2022/06/27 04:42:56;;;;;;;6.13;5.20;;;;;;;;;;5093702;28;20048;-53
2022/06/27 04:45:24;;;;;;;6.75;5.22;;;;;;;;;;5093850;28;20088;-53
2022/06/27 04:47:57;;;;;;;12.52;6.85;;;;;;;;;;5093753;28;20516;-55
2022/06/27 04:50:26;;;;;;;9.05;6.50;;;;;;;;;;5093465;28;20109;-55
2022/06/27 04:52:54;;;;;;;8.73;5.50;;;;;;;;;;5095575;28;20047;-54
2022/06/27 04:55:22;;;;;;;7.00;5.22;;;;;;;;;;5093705;28;20380;-56
2022/06/27 04:57:50;;;;;;;8.25;5.70;;;;;;;;;;5111852;28;20486;-55
2022/06/27 05:00:18;;;;;;;7.25;5.03;;;;;;;;;;5093328;28;20071;-55
2022/06/27 05:03:07;;;;;;;6.30;4.72;;;;;;;;;;5114390;28;20124;-50
2022/06/27 05:05:39;;;;;;;6.13;4.95;;;;;;;;;;5097580;28;20054;-55
2022/06/27 05:08:07;;;;;;;6.25;5.18;;;;;;;;;;5097566;28;20075;-55
2022/06/27 05:10:42;;;;;;;19.65;12.63;;;;;;;;;;5097871;28;20555;-56
2022/06/27 05:13:09;;;;;;;9.25;6.25;;;;;;;;;;5097561;28;20048;-58
2022/06/27 05:15:37;;;;;;;7.03;4.47;;;;;;;;;;5097070;28;20487;-54
2022/06/27 05:18:05;;;;;;;7.68;4.43;;;;;;;;;;5097591;28;20040;-58
2022/06/27 05:20:34;;;;;;;5.90;3.83;;;;;;;;;;5097346;28;20375;-58
2022/06/27 05:23:02;;;;;;;6.43;4.15;;;;;;;;;;5097349;28;20040;-53
2022/06/27 05:25:30;;;;;;;4.15;3.53;;;;;;;;;;5097242;28;20463;-54
2022/06/27 05:27:59;;;;;;;4.18;3.15;;;;;;;;;;5115593;28;20544;-56
2022/06/27 05:30:28;;;;;;;5.88;3.80;;;;;;;;;;5114814;28;20047;-57
2022/06/27 05:32:56;;;;;;;9.10;4.07;;;;;;;;;;5115347;28;20055;-55
2022/06/27 05:35:23;;;;;;;4.85;3.17;;;;;;;;;;5096941;28;20386;-56
2022/06/27 05:37:53;;;;;;;6.60;3.47;;;;;;;;;;5096823;28;20092;-56
2022/06/27 05:40:22;;;;;;;5.97;3.55;;;;;;;;;;5096851;28;20039;-53
2022/06/27 05:42:49;;;;;;;6.65;3.80;;;;;;;;;;5115033;28;20046;-54
2022/06/27 05:45:17;;;;;;;6.35;3.35;;;;;;;;;;5096772;28;20048;-56
2022/06/27 05:48:10;;;;;;;;;;;;;;;;;;5083458;28;20566;-54
2022/06/27 05:50:51;;;;;;;4.30;3.03;;;;;;;;;;5096656;28;19927;-56
2022/06/27 05:53:20;;;;;;;4.68;3.10;;;;;;;;;;5096429;28;20044;-52
2022/06/27 05:55:48;;;;;;;7.07;2.78;;;;;;;;;;5096746;28;20455;-54
2022/06/27 05:58:16;;;;;;;7.43;3.20;;;;;;;;;;5096198;28;20085;-56
2022/06/27 06:00:43;;;;;;;5.18;2.95;;;;;;;;;;5114743;28;20063;-54
2022/06/27 06:03:11;;;;;;;34.20;19.83;;;;;;;;;;5096723;28;20036;-55
2022/06/27 06:05:44;;;;;;;5.85;4.15;;;;;;;;;;5096402;28;20047;-53
2022/06/27 06:08:12;;;;;;;4.93;2.83;;;;;;;;;;5114327;28;20043;-52
2022/06/27 06:10:40;;;;;;;6.18;2.65;;;;;;;;;;5114424;28;20040;-52
2022/06/27 06:13:07;;;;;;;7.10;2.60;;;;;;;;;;5096339;28;20394;-50
2022/06/27 06:15:38;;;;;;;3.05;2.13;;;;;;;;;;5113833;28;20047;-55
2022/06/27 06:18:07;;;;;;;4.45;2.70;;;;;;;;;;5096470;28;20134;-56
2022/06/27 06:20:34;;;;;;;5.82;2.47;;;;;;;;;;5096027;28;20047;-55
2022/06/27 06:23:02;;;;;;;18.63;12.40;;;;;;;;;;5114622;28;20028;-57
2022/06/27 06:25:29;;;;;;;16.35;11.00;;;;;;;;;;5096137;28;20044;-57
2022/06/27 06:28:04;;;;;;;20.17;16.42;;;;;;;;;;5095874;28;20130;-51
2022/06/27 06:30:33;;;;;;;4.35;2.22;;;;;;;;;;5114010;28;20401;-57
2022/06/27 06:33:05;;;;;;;5.45;2.53;;;;;;;;;;5095816;28;20078;-54
2022/06/27 06:35:36;;;;;;;4.15;2.00;;;;;;;;;;5113480;28;20119;-53
2022/06/27 06:38:04;;;;;;;5.30;2.35;;;;;;;;;;5093764;28;20039;-53
2022/06/27 06:40:32;;;;;;;4.07;1.92;;;;;;;;;;5093783;28;20089;-54
2022/06/27 06:43:00;;;;;;;4.78;2.30;;;;;;;;;;5111817;28;20498;-57
2022/06/27 06:45:54;;;;;;;4.97;2.28;;;;;;;;;;5108607;28;20402;-54
2022/06/27 06:48:35;;;;;;;7.88;2.35;;;;;;;;;;5093759;28;20437;-54
2022/06/27 06:51:05;;;;;;;3.80;2.17;;;;;;;;;;5093888;28;20126;-55
2022/06/27 06:53:35;;;;;;;7.43;2.08;;;;;;;;;;5111991;28;20043;-54
2022/06/27 06:56:05;;;;;;;4.35;2.08;;;;;;;;;;5111934;28;20040;-55
2022/06/27 06:58:34;;;;;;;4.90;2.28;;;;;;;;;;5111643;28;20535;-54
2022/06/27 07:01:01;;;;;;;5.80;2.38;;;;;;;;;;5095482;28;20048;-54
2022/06/27 07:03:33;;;;;;;3.67;2.22;;;;;;;;;;5111543;28;20039;-53
2022/06/27 07:06:04;;;;;;;3.90;2.13;;;;;;;;;;5111476;28;20039;-54
2022/06/27 07:08:32;;;;;;;4.82;1.88;;;;;;;;;;5111272;28;20138;-55
2022/06/27 07:10:59;;;;;;;3.22;1.85;;;;;;;;;;5111818;28;20552;-55
2022/06/27 07:13:27;;;;;;;4.95;2.38;;;;;;;;;;5111339;28;20032;-50
2022/06/27 07:15:55;;;;;;;5.40;2.17;;;;;;;;;;5111597;28;20559;-55
2022/06/27 07:18:24;;;;;;;5.68;2.08;;;;;;;;;;5110979;28;20105;-51
2022/06/27 07:20:52;;;;;;;3.72;2.03;;;;;;;;;;5111017;28;20040;-54
2022/06/27 07:23:20;;;;;;;3.70;2.25;;;;;;;;;;5111142;28;20038;-52
2022/06/27 07:25:48;;;;;;;6.00;1.98;;;;;;;;;;5111065;28;20047;-55
2022/06/27 07:28:20;;;;;;;5.30;2.00;;;;;;;;;;5110970;28;20437;-52
2022/06/27 07:30:49;;;;;;;5.43;2.53;;;;;;;;;;5111026;28;20105;-54
2022/06/27 07:33:17;;;;;;;3.97;2.10;;;;;;;;;;5112644;28;20085;-54
2022/06/27 07:35:44;;;;;;;4.88;1.83;;;;;;;;;;5113037;28;20039;-53
2022/06/27 07:38:12;;;;;;;4.13;2.10;;;;;;;;;;5112767;28;20038;-51
2022/06/27 07:40:42;;;;;;;5.53;2.30;;;;;;;;;;5113041;28;20537;-52
2022/06/27 07:43:10;;;;;;;5.00;2.15;;;;;;;;;;5112818;28;20047;-53
2022/06/27 07:45:38;;;;;;;3.72;1.88;;;;;;;;;;5112709;28;20398;-48
2022/06/27 07:48:06;;;;;;;7.47;1.92;;;;;;;;;;5112620;28;20039;-52
2022/06/27 07:50:37;;;;;;;6.25;2.22;;;;;;;;;;5112632;28;20104;-53
2022/06/27 07:53:12;;;;;;;5.13;2.10;;;;;;;;;;5113027;28;20399;-54
2022/06/27 07:55:41;;;;;;;4.40;1.73;;;;;;;;;;5112700;28;20092;-55
2022/06/27 07:58:14;;;;;;;4.80;1.90;;;;;;;;;;5112425;28;20436;-53
2022/06/27 08:00:44;;;;;;;6.47;2.47;;;;;;;;;;5112475;28;20072;-53
2022/06/27 08:05:59;;;;;;;4.18;1.90;;;;;;;;;;5112453;28;20054;-54
2022/06/27 08:08:28;;;;;;;3.97;1.95;;;;;;;;;;5112447;28;20069;-55
2022/06/27 08:10:56;;;;;;;4.13;2.03;;;;;;;;;;5112337;28;20118;-49
2022/06/27 08:13:24;;;;;;;7.15;2.22;;;;;;;;;;5112425;28;20039;-56
2022/06/27 08:15:52;;;;;;;6.55;1.88;;;;;;;;;;5112193;28;20032;-50
2022/06/27 08:18:19;;;;;;;4.63;1.95;;;;;;;;;;5112166;28;20035;-54
2022/06/27 08:20:47;;;;;;;4.90;2.00;;;;;;;;;;5112213;28;20052;-51
2022/06/27 08:23:17;;;;;;;16.73;2.70;;;;;;;;;;5112233;28;20123;-52
2022/06/27 08:25:47;;;;;;;3.97;1.80;;;;;;;;;;5112095;28;20054;-50
2022/06/27 08:28:16;;;;;;;3.00;2.00;;;;;;;;;;5112265;28;20044;-54
2022/06/27 08:30:44;;;;;;;4.20;2.20;;;;;;;;;;5112215;28;20048;-49
2022/06/27 08:33:12;;;;;;;5.88;2.03;;;;;;;;;;5094236;28;20088;-52
2022/06/27 08:35:40;;;;;;;5.03;1.92;;;;;;;;;;5112252;28;20043;-53
2022/06/27 08:38:08;;;;;;;4.60;2.08;;;;;;;;;;5114395;28;20066;-55
2022/06/27 08:40:38;;;;;;;6.88;2.10;;;;;;;;;;5116445;28;20047;-50
2022/06/27 08:43:06;;;;;;;5.55;2.90;;;;;;;;;;5116554;28;20039;-54
2022/06/27 08:45:34;;;;;;;5.47;2.20;;;;;;;;;;5116522;28;20063;-50
2022/06/27 08:48:07;;;;;;;8.00;2.17;;;;;;;;;;5116159;28;20123;-52
2022/06/27 08:50:35;;;;;;;5.85;1.90;;;;;;;;;;5116047;28;20048;-54
2022/06/27 08:53:04;;;;;;;6.00;1.73;;;;;;;;;;5116301;28;20088;-54
2022/06/27 08:55:35;;;;;;;5.93;2.10;;;;;;;;;;5115870;28;20043;-53
2022/06/27 08:58:05;;;;;;;5.43;2.23;;;;;;;;;;5097901;28;20088;-52
2022/06/27 09:00:37;;;;;;;5.57;2.42;;;;;;;;;;5116078;28;20562;-52
2022/06/27 09:03:08;;;;;;;4.90;2.38;;;;;;;;;;5116120;28;20110;-54
2022/06/27 09:05:37;;;;;;;6.05;2.10;;;;;;;;;;5098308;28;20051;-50
2022/06/27 09:08:07;;;;;;;5.00;2.10;;;;;;;;;;5116007;28;20035;-55
2022/06/27 09:10:42;;;;;;;3.63;2.00;;;;;;;;;;5115922;28;20048;-51
2022/06/27 09:13:15;;;;;;;4.28;1.77;;;;;;;;;;5115786;28;20063;-54
2022/06/27 09:15:48;;;;;;;3.47;1.77;;;;;;;;;;5115588;28;20058;-49
2022/06/27 09:18:18;;;;;;;5.43;1.92;;;;;;;;;;5115461;28;20114;-53
2022/06/27 09:20:50;;;;;;;4.57;1.80;;;;;;;;;;5115510;28;20543;-54
2022/06/27 09:23:49;;;;;;;4.82;1.95;;;;;;;;;;5115453;28;20055;-55
2022/06/27 09:26:25;;;;;;;4.43;1.98;;;;;;;;;;5115118;28;20044;-54
2022/06/27 09:28:53;;;;;;;4.40;1.92;;;;;;;;;;5115531;28;20043;-54
2022/06/27 09:31:27;;;;;;;6.97;2.05;;;;;;;;;;5115199;28;20043;-54
2022/06/27 09:34:08;;;;;;;5.43;2.00;;;;;;;;;;5115354;28;20047;-52
2022/06/27 09:36:39;;;;;;;3.70;1.70;;;;;;;;;;5097439;28;20379;-53
2022/06/27 09:39:16;;;;;;;7.00;2.05;;;;;;;;;;5115428;28;20036;-54
2022/06/27 09:41:45;;;;;;;3.42;1.77;;;;;;;;;;5115277;28;20050;-51
2022/06/27 09:44:16;;;;;;;4.32;1.75;;;;;;;;;;5114860;28;20031;-53
2022/06/27 09:46:51;;;;;;;3.85;2.17;;;;;;;;;;5115018;28;20482;-55
2022/06/27 09:49:19;;;;;;;5.88;2.17;;;;;;;;;;5113680;28;20482;-52
2022/06/27 09:51:48;;;;;;;5.03;2.10;;;;;;;;;;5114725;28;20406;-52
2022/06/27 09:54:16;;;;;;;6.55;2.10;;;;;;;;;;5114648;28;20399;-52
2022/06/27 09:56:45;;;;;;;5.15;2.33;;;;;;;;;;5114924;28;20039;-52
2022/06/27 09:59:13;;;;;;;5.95;2.78;;;;;;;;;;5114711;28;20043;-52
2022/06/27 10:01:44;;;;;;;5.07;2.70;;;;;;;;;;5114844;28;20043;-51
2022/06/27 10:04:11;;;;;;;5.15;2.80;;;;;;;;;;5114718;28;20039;-52
2022/06/27 10:06:41;;;;;;;4.47;2.50;;;;;;;;;;5114802;28;20064;-53
2022/06/27 10:09:10;;;;;;;6.40;2.28;;;;;;;;;;5096672;28;20043;-50
2022/06/27 10:11:38;;;;;;;6.53;2.38;;;;;;;;;;5114338;28;20404;-54
2022/06/27 10:14:11;;;;;;;5.97;2.47;;;;;;;;;;5114679;28;20101;-50
2022/06/27 10:16:52;;;;;;;8.40;2.60;;;;;;;;;;5114552;28;20074;-53
2022/06/27 10:19:21;;;;;;;4.03;2.10;;;;;;;;;;5114522;28;20066;-55
2022/06/27 10:21:49;;;;;;;4.78;2.40;;;;;;;;;;5114337;28;20043;-52
2022/06/27 10:24:21;;;;;;;6.53;2.47;;;;;;;;;;5114290;28;20044;-50
2022/06/27 10:26:54;;;;;;;3.85;2.00;;;;;;;;;;5114193;28;20040;-48
2022/06/27 10:29:32;;;;;;;4.38;2.50;;;;;;;;;;5096906;28;20043;-52
2022/06/27 10:32:07;;;;;;;4.93;2.22;;;;;;;;;;5114204;28;20039;-54
2022/06/27 10:34:37;;;;;;;4.55;2.50;;;;;;;;;;5114252;28;20123;-52
2022/06/27 10:37:28;;;;;;;6.63;2.55;;;;;;;;;;5113874;28;20071;-51
2022/06/27 10:40:20;;;;;;;9.82;5.53;;;;;;;;;;5101429;28;20058;-51
2022/06/27 10:42:55;;;;;;;9.55;5.63;;;;;;;;;;5114100;28;20085;-55
2022/06/27 10:45:27;;;;;;;5.68;3.70;;;;;;;;;;5113667;28;20032;-54
2022/06/27 10:48:02;;;;;;;4.05;2.05;;;;;;;;;;5113569;28;20040;-53
2022/06/27 10:50:40;;;;;;;4.65;2.17;;;;;;;;;;5113211;28;20094;-53
2022/06/27 10:53:25;;;;;;;4.13;2.13;;;;;;;;;;5113786;28;20063;-51
2022/06/27 10:55:54;;;;;;;5.10;2.35;;;;;;;;;;5113714;28;20074;-52
2022/06/27 10:58:31;;;;;;;4.90;2.20;;;;;;;;;;5113457;28;20051;-50
2022/06/27 11:01:18;;;;;;;3.95;2.20;;;;;;;;;;5113231;28;20040;-51
2022/06/27 11:03:46;;;;;;;3.70;2.25;;;;;;;;;;5113325;28;20050;-54
2022/06/27 11:06:14;;;;;;;4.65;2.00;;;;;;;;;;5113280;28;20071;-50
2022/06/27 11:08:44;;;;;;;4.18;2.13;;;;;;;;;;5113275;28;20058;-52
2022/06/27 11:11:17;;;;;;;7.72;2.25;;;;;;;;;;5113019;28;20043;-53
2022/06/27 11:13:53;;;;;;;5.05;2.20;;;;;;;;;;5113164;28;20555;-51
2022/06/27 11:16:26;;;;;;;4.32;2.15;;;;;;;;;;5113238;28;20043;-50
2022/06/27 11:18:58;;;;;;;2.83;2.20;;;;;;;;;;5113379;28;20040;-52
2022/06/27 11:21:26;;;;;;;;;;;;;;;;;;5113275;28;20035;-50
2022/06/27 11:24:08;;;;;;;6.25;2.17;;;;;;;;;;5113131;28;19919;-53
2022/06/27 11:26:43;;;;;;;3.75;1.90;;;;;;;;;;5113158;28;20603;-53
2022/06/27 11:32:13;;;;;;;2.92;1.92;;;;;;;;;;5113000;28;20127;-48
2022/06/27 11:34:47;;;;;;;6.63;2.10;;;;;;;;;;5113181;28;20046;-53
2022/06/27 11:37:17;;;;;;;6.05;1.92;;;;;;;;;;5112768;28;20044;-53
2022/06/27 11:39:58;;;;;;;3.13;2.05;;;;;;;;;;5112686;28;20046;-49
2022/06/27 11:42:30;;;;;;;4.22;2.05;;;;;;;;;;5112570;28;20368;-52
2022/06/27 11:45:12;;;;;;;4.03;2.03;;;;;;;;;;5112875;28;20440;-50
2022/06/27 11:47:44;;;;;;;4.47;2.30;;;;;;;;;;5112291;28;20115;-52
2022/06/27 11:50:20;;;;;;;3.33;2.03;;;;;;;;;;5112268;28;20487;-54
2022/06/27 11:52:53;;;;;;;5.85;2.08;;;;;;;;;;5112532;28;20043;-54
2022/06/27 11:55:24;;;;;;;;;;;;;;;;;;5113064;28;20491;-52
2022/06/27 11:57:55;;;;;;;8.23;2.58;;;;;;;;;;5112389;28;20378;-48
2022/06/27 12:00:25;;;;;;;4.85;1.90;;;;;;;;;;5112383;28;20122;-52
2022/06/27 12:03:01;;;;;;;3.15;1.90;;;;;;;;;;5112566;28;20119;-51
2022/06/27 12:05:29;;;;;;;6.72;2.10;;;;;;;;;;5112370;28;20069;-53
2022/06/27 12:08:07;;;;;;;4.07;1.90;;;;;;;;;;5112423;28;20051;-50
2022/06/27 12:10:39;;;;;;;5.22;1.92;;;;;;;;;;5112334;28;20118;-48
2022/06/27 12:13:10;;;;;;;3.97;2.20;;;;;;;;;;5111914;28;20032;-50
2022/06/27 12:15:40;;;;;;;5.72;1.92;;;;;;;;;;5112570;28;20043;-52
2022/06/27 12:18:09;;;;;;;5.57;1.75;;;;;;;;;;5112665;28;20427;-51
2022/06/27 12:20:36;;;;;;;6.70;1.75;;;;;;;;;;5112334;28;20491;-53
2022/06/27 12:23:04;;;;;;;5.53;1.70;;;;;;;;;;5112310;28;20050;-52
2022/06/27 12:25:35;;;;;;;3.85;2.03;;;;;;;;;;5112334;28;20050;-53
2022/06/27 12:28:05;;;;;;;4.10;2.42;;;;;;;;;;5112305;28;20398;-50
2022/06/27 12:30:33;;;;;;;6.68;2.47;;;;;;;;;;5111968;28;20043;-50
2022/06/27 12:33:00;;;;;;;4.25;1.83;;;;;;;;;;5112044;28;20092;-53
2022/06/27 12:35:28;;;;;;;3.17;2.15;;;;;;;;;;5112174;28;20558;-51
2022/06/27 12:38:00;;;;;;;3.15;1.85;;;;;;;;;;5112023;28;20069;-53
2022/06/27 12:40:27;;;;;;;3.58;1.88;;;;;;;;;;5112066;28;20035;-54
2022/06/27 12:43:03;;;;;;;3.75;2.05;;;;;;;;;;5111955;28;20427;-54
2022/06/27 12:45:34;;;;;;;5.03;2.22;;;;;;;;;;5112242;28;20046;-52
2022/06/27 12:48:06;;;;;;;5.75;2.00;;;;;;;;;;5111880;28;20502;-49
2022/06/27 12:50:35;;;;;;;5.55;1.95;;;;;;;;;;5112132;28;20047;-50
2022/06/27 12:53:03;;;;;;;5.50;2.03;;;;;;;;;;5112020;28;20044;-48
2022/06/27 12:55:30;;;;;;;3.00;1.83;;;;;;;;;;5112212;28;20046;-53
2022/06/27 12:57:57;;;;;;;5.10;2.38;;;;;;;;;;5111964;28;20044;-50
2022/06/27 13:00:25;;;;;;;28.95;13.15;;;;;;;;;;5111746;28;20040;-49
2022/06/27 13:02:52;;;;;;;5.70;2.17;;;;;;;;;;5111856;28;20042;-52
2022/06/27 13:05:26;;;;;;;3.85;2.10;;;;;;;;;;5111615;28;20508;-54
2022/06/27 13:07:54;;;;;;;4.05;2.10;;;;;;;;;;5093927;28;20039;-49
2022/06/27 13:10:21;;;;;;;8.60;2.13;;;;;;;;;;5111796;28;20121;-54
2022/06/27 13:12:48;;;;;;;6.43;2.10;;;;;;;;;;5111968;28;20092;-55
2022/06/27 13:15:17;;;;;;;7.43;4.68;;;;;;;;;;5111735;28;20048;-53
2022/06/27 13:17:46;;;;;;;5.38;2.40;;;;;;;;;;5111781;28;20570;-53
2022/06/27 13:20:13;;;;;;;8.32;2.60;;;;;;;;;;5111420;28;20405;-53
2022/06/27 13:22:40;;;;;;;2.42;1.63;;;;;;;;;;5111633;28;20032;-55
2022/06/27 13:25:08;;;;;;;4.35;2.05;;;;;;;;;;5115442;28;20096;-50
2022/06/27 13:27:35;;;;;;;5.40;2.28;;;;;;;;;;5115513;28;20487;-50
2022/06/27 13:30:05;;;;;;;17.10;9.15;;;;;;;;;;5115562;28;20092;-51
2022/06/27 13:32:33;;;;;;;5.53;3.25;;;;;;;;;;5115237;28;20058;-56
2022/06/27 13:35:00;;;;;;;4.50;2.28;;;;;;;;;;5115483;28;20093;-51
2022/06/27 13:37:36;;;;;;;4.88;2.22;;;;;;;;;;5115653;28;20040;-50
2022/06/27 13:40:05;;;;;;;3.92;2.35;;;;;;;;;;5115447;28;20119;-52
2022/06/27 13:42:33;;;;;;;4.25;2.47;;;;;;;;;;5115141;28;20444;-53
2022/06/27 13:45:03;;;;;;;4.10;2.17;;;;;;;;;;5115075;28;20096;-51
2022/06/27 13:47:31;;;;;;;3.75;2.15;;;;;;;;;;5115135;28;20095;-57
2022/06/27 13:50:01;;;;;;;4.63;2.50;;;;;;;;;;5096709;28;20040;-51
2022/06/27 13:52:31;;;;;;;4.68;2.78;;;;;;;;;;5094062;28;20051;-51
2022/06/27 13:54:59;;;;;;;3.40;2.13;;;;;;;;;;5094754;28;20040;-54
2022/06/27 13:57:30;;;;;;;3.80;1.85;;;;;;;;;;5093981;28;20037;-50
2022/06/27 13:59:57;;;;;;;2.70;1.90;;;;;;;;;;5092556;28;20040;-52
2022/06/27 14:02:24;;;;;;;5.38;2.10;;;;;;;;;;5092192;28;20043;-52
2022/06/27 14:04:52;;;;;;;4.88;2.20;;;;;;;;;;5092762;28;20036;-53
2022/06/27 14:07:39;;;;;;;3.28;1.67;;;;;;;;;;5092885;28;20040;-50
2022/06/27 14:10:12;;;;;;;5.60;2.10;;;;;;;;;;5093489;28;20097;-55
2022/06/27 14:12:42;;;;;;;3.25;2.17;;;;;;;;;;5092850;28;20105;-56
2022/06/27 14:15:19;;;;;;;4.65;2.10;;;;;;;;;;5094241;28;20119;-53
2022/06/27 14:17:48;;;;;;;6.07;2.28;;;;;;;;;;5093921;28;20496;-55
2022/06/27 14:20:17;;;;;;;5.75;2.65;;;;;;;;;;5094113;28;20124;-55
2022/06/27 14:22:44;;;;;;;4.25;2.30;;;;;;;;;;5094106;28;20376;-55
2022/06/27 14:25:13;;;;;;;5.22;2.17;;;;;;;;;;5093983;28;20075;-55
2022/06/27 14:27:40;;;;;;;3.63;2.00;;;;;;;;;;5093825;28;20036;-60
2022/06/27 14:30:08;;;;;;;8.25;2.53;;;;;;;;;;5093575;28;20032;-51
2022/06/27 14:32:35;;;;;;;4.90;2.08;;;;;;;;;;5093834;28;20071;-53
2022/06/27 14:35:23;;;;;;;3.95;2.17;;;;;;;;;;5093115;28;20040;-54
2022/06/27 14:37:50;;;;;;;6.00;2.10;;;;;;;;;;5093646;28;20072;-53
2022/06/27 14:40:17;;;;;;;3.70;2.17;;;;;;;;;;5091617;28;20093;-51
2022/06/27 14:42:45;;;;;;;3.65;2.47;;;;;;;;;;5091790;28;20097;-53
2022/06/27 14:45:12;;;;;;;5.72;2.10;;;;;;;;;;5091652;28;20146;-55
2022/06/27 14:47:40;;;;;;;3.92;2.00;;;;;;;;;;5091640;28;20040;-55
2022/06/27 14:50:08;;;;;;;3.78;2.00;;;;;;;;;;5092056;28;20076;-54
2022/06/27 14:52:35;;;;;;;4.55;2.10;;;;;;;;;;5111962;28;20047;-55
2022/06/27 14:55:03;;;;;;;4.80;2.10;;;;;;;;;;5113353;28;20147;-55
2022/06/27 14:57:31;;;;;;;2.72;1.88;;;;;;;;;;5113658;28;20555;-55
2022/06/27 14:59:58;;;;;;;6.10;2.45;;;;;;;;;;5113797;28;20078;-51
2022/06/27 15:02:25;;;;;;;4.00;2.10;;;;;;;;;;5113661;28;20053;-53
2022/06/27 15:04:53;;;;;;;3.03;2.00;;;;;;;;;;5113388;28;20044;-52
2022/06/27 15:07:21;;;;;;;5.97;2.20;;;;;;;;;;5113525;28;20044;-52
2022/06/27 15:09:48;;;;;;;4.45;2.55;;;;;;;;;;5113283;28;20048;-51
2022/06/27 15:12:15;;;;;;;5.85;2.25;;;;;;;;;;5113129;28;20075;-49